createdAt,value
2022-09-15T00:02:25.195Z,100197.56
2022-09-15T00:04:51.832Z,100216.69
2022-09-15T00:07:18.414Z,100191.13
2022-09-15T00:09:44.854Z,100210.41
2022-09-15T00:12:11.436Z,100210.19
2022-09-15T00:14:37.890Z,100206.09
2022-09-15T00:17:04.558Z,100209.84
2022-09-15T00:19:31.057Z,100200.78
2022-09-15T00:21:57.569Z,100198.97
2022-09-15T00:24:24.067Z,100195.16
2022-09-15T00:26:50.672Z,100201.25
2022-09-15T00:29:17.118Z,100201.41
2022-09-15T00:31:43.562Z,100197.13
2022-09-15T00:34:12.206Z,100194.66
2022-09-15T00:36:38.794Z,100180.66
2022-09-15T00:39:05.607Z,100206.13
2022-09-15T00:41:32.177Z,100191.97
2022-09-15T00:44:01.649Z,100201.50
2022-09-15T00:46:37.042Z,100209.38
2022-09-15T00:49:21.221Z,100206.09
2022-09-15T00:51:51.726Z,100200.50
2022-09-15T00:54:22.552Z,100215.41
2022-09-15T00:56:53.575Z,100218.50
2022-09-15T00:59:24.321Z,100216.97
2022-09-15T01:02:02.148Z,100216.69
2022-09-15T01:04:28.961Z,100220.59
2022-09-15T01:07:02.000Z,100214.69
2022-09-15T01:09:34.817Z,100223.34
2022-09-15T01:12:02.616Z,100212.19
2022-09-15T01:14:29.206Z,100202.06
2022-09-15T01:17:22.068Z,100215.66
2022-09-15T01:20:26.182Z,100217.63
2022-09-15T01:22:53.021Z,100206.41
2022-09-15T01:25:31.813Z,100207.97
2022-09-15T01:28:16.677Z,100183.56
2022-09-15T01:30:54.873Z,100201.19
2022-09-15T01:33:54.917Z,100201.19
2022-09-15T01:36:44.970Z,100194.81
2022-09-15T01:39:20.212Z,100192.44
2022-09-15T01:41:55.949Z,100193.53
2022-09-15T01:44:27.406Z,100191.22
2022-09-15T01:46:59.580Z,100188.88
2022-09-15T01:49:31.238Z,100196.09
2022-09-15T01:51:57.674Z,100187.03
2022-09-15T01:54:28.869Z,100199.16
2022-09-15T01:56:56.131Z,100193.69
2022-09-15T01:59:22.906Z,100197.66
2022-09-15T02:01:58.816Z,100202.91
2022-09-15T02:04:33.554Z,100193.53
2022-09-15T02:07:30.361Z,100199.06
2022-09-15T02:10:11.495Z,100177.13
2022-09-15T02:12:47.907Z,100199.66
2022-09-15T02:15:21.063Z,100205.22
2022-09-15T02:17:54.033Z,100159.03
2022-09-15T02:20:50.807Z,100208.81
2022-09-15T02:23:26.174Z,100198.59
2022-09-15T02:26:04.944Z,100202.19
2022-09-15T02:28:36.694Z,100202.50
2022-09-15T02:31:05.752Z,100196.72
2022-09-15T02:33:40.096Z,100198.66
2022-09-15T02:36:08.257Z,100199.78
2022-09-15T02:38:40.765Z,100213.56
2022-09-15T02:41:07.356Z,100209.28
2022-09-15T02:43:34.143Z,100200.53
2022-09-15T02:46:00.744Z,100210.31
2022-09-15T02:48:27.262Z,100216.69
2022-09-15T02:50:53.690Z,100215.03
2022-09-15T02:53:20.103Z,100215.47
2022-09-15T02:55:47.048Z,100215.16
2022-09-15T02:58:13.460Z,100200.31
2022-09-15T03:00:39.911Z,100219.88
2022-09-15T03:03:06.369Z,100211.19
2022-09-15T03:05:32.802Z,100211.19
2022-09-15T03:07:59.265Z,100203.63
2022-09-15T03:10:26.328Z,100198.06
2022-09-15T03:12:54.331Z,100210.50
2022-09-15T03:15:24.336Z,100210.94
2022-09-15T03:17:51.104Z,100191.59
2022-09-15T03:20:20.817Z,100221.97
2022-09-15T03:22:47.883Z,100201.09
2022-09-15T03:25:14.412Z,100214.66
2022-09-15T03:27:40.939Z,100208.75
2022-09-15T03:30:08.656Z,100208.88
2022-09-15T03:32:35.300Z,100211.50
2022-09-15T03:35:01.865Z,100219.53
2022-09-15T03:37:28.517Z,100212.47
2022-09-15T03:39:54.993Z,100213.31
2022-09-15T03:42:21.771Z,100218.41
2022-09-15T03:44:48.344Z,100218.25
2022-09-15T03:47:14.810Z,100196.13
2022-09-15T03:49:41.254Z,100187.59
2022-09-15T03:52:07.725Z,100215.38
2022-09-15T03:54:35.434Z,100224.03
2022-09-15T03:57:01.905Z,100223.59
2022-09-15T03:59:28.333Z,100218.38
2022-09-15T04:01:54.839Z,100193.47
2022-09-15T04:04:21.297Z,100219.31
2022-09-15T04:06:47.712Z,100216.91
2022-09-15T04:09:14.217Z,100215.66
2022-09-15T04:11:40.958Z,100216.03
2022-09-15T04:14:07.433Z,100224.31
2022-09-15T04:16:34.083Z,100184.63
2022-09-15T04:19:01.671Z,100209.78
2022-09-15T04:21:28.122Z,100208.13
2022-09-15T04:23:54.758Z,100204.38
2022-09-15T04:26:34.323Z,100208.28
2022-09-15T04:29:04.630Z,100212.94
2022-09-15T04:31:33.138Z,100206.00
2022-09-15T04:33:59.835Z,100206.84
2022-09-15T04:36:28.177Z,100212.78
2022-09-15T04:38:55.356Z,100200.28
2022-09-15T04:41:22.649Z,100218.75
2022-09-15T04:43:49.580Z,100220.28
2022-09-15T04:46:16.759Z,100223.44
2022-09-15T04:48:44.038Z,100187.53
2022-09-15T04:51:17.147Z,100217.06
2022-09-15T04:53:44.666Z,100199.75
2022-09-15T04:56:13.981Z,100219.09
2022-09-15T04:58:46.731Z,100221.03
2022-09-15T05:01:18.996Z,100217.47
2022-09-15T05:03:46.451Z,100224.50
2022-09-15T05:06:15.905Z,100230.56
2022-09-15T05:08:42.425Z,100165.41
2022-09-15T05:11:11.632Z,100221.03
2022-09-15T05:13:39.476Z,100219.91
2022-09-15T05:16:18.523Z,100218.81
2022-09-15T05:18:46.422Z,100219.47
2022-09-15T05:21:14.729Z,100228.97
2022-09-15T05:23:41.574Z,100235.88
2022-09-15T05:26:12.072Z,100243.75
2022-09-15T05:28:38.497Z,100247.19
2022-09-15T05:31:13.733Z,100248.03
2022-09-15T05:33:40.638Z,100246.22
2022-09-15T05:36:07.471Z,100239.78
2022-09-15T05:38:34.111Z,100253.97
2022-09-15T05:41:10.295Z,100262.63
2022-09-15T05:43:37.965Z,100251.03
2022-09-15T05:46:05.939Z,100247.41
2022-09-15T05:48:32.657Z,100248.41
2022-09-15T05:50:59.097Z,100257.63
2022-09-15T05:53:26.612Z,100256.34
2022-09-15T05:55:57.341Z,100260.63
2022-09-15T05:58:24.341Z,100258.66
2022-09-15T06:00:53.239Z,100262.78
2022-09-15T06:03:20.689Z,100264.44
2022-09-15T06:05:47.851Z,100264.84
2022-09-15T06:08:14.399Z,100265.81
2022-09-15T06:10:40.827Z,100264.25
2022-09-15T06:13:07.550Z,100271.13
2022-09-15T06:15:34.200Z,100267.66
2022-09-15T06:18:00.632Z,100270.69
2022-09-15T06:20:27.110Z,100271.06
2022-09-15T06:22:54.106Z,100272.44
2022-09-15T06:25:20.584Z,100277.38
2022-09-15T06:27:49.840Z,100274.06
2022-09-15T06:30:16.422Z,100278.41
2022-09-15T06:32:47.934Z,100282.41
2022-09-15T06:35:15.223Z,100276.16
2022-09-15T06:37:41.661Z,100280.13
2022-09-15T06:40:08.842Z,100285.59
2022-09-15T06:42:35.393Z,100292.19
2022-09-15T06:45:01.846Z,100292.41
2022-09-15T06:47:33.764Z,100290.97
2022-09-15T06:50:00.859Z,100290.50
2022-09-15T06:52:27.703Z,100275.00
2022-09-15T06:54:54.158Z,100296.47
2022-09-15T06:57:20.598Z,100305.00
2022-09-15T06:59:47.070Z,100303.81
2022-09-15T07:02:13.752Z,100306.72
2022-09-15T07:04:40.250Z,100304.72
2022-09-15T07:07:08.009Z,100304.34
2022-09-15T07:09:34.544Z,100297.25
2022-09-15T07:12:01.329Z,100296.19
2022-09-15T07:14:27.756Z,100310.00
2022-09-15T07:16:54.219Z,100307.75
2022-09-15T07:19:20.697Z,100312.03
2022-09-15T07:21:47.078Z,100310.72
2022-09-15T07:24:14.526Z,100315.53
2022-09-15T07:26:41.827Z,100319.72
2022-09-15T07:29:09.706Z,100298.78
2022-09-15T07:31:38.365Z,100333.56
2022-09-15T07:34:05.981Z,100330.03
2022-09-15T07:36:32.676Z,100327.06
2022-09-15T07:38:59.189Z,100335.13
2022-09-15T07:41:30.526Z,100329.34
2022-09-15T07:43:59.124Z,100330.44
2022-09-15T07:46:29.140Z,100306.50
2022-09-15T07:48:58.419Z,100342.03
2022-09-15T07:51:25.674Z,100362.28
2022-09-15T07:53:52.912Z,100357.25
2022-09-15T07:56:19.644Z,100356.47
2022-09-15T07:58:46.964Z,100364.25
2022-09-15T08:01:16.308Z,100364.97
2022-09-15T08:03:45.177Z,100365.16
2022-09-15T08:06:13.057Z,100366.72
2022-09-15T08:08:40.931Z,100368.75
2022-09-15T08:11:09.510Z,100349.81
2022-09-15T08:13:36.366Z,100369.13
2022-09-15T08:16:16.916Z,100378.56
2022-09-15T08:18:44.192Z,100377.25
2022-09-15T08:21:14.350Z,100394.06
2022-09-15T08:23:41.060Z,100395.72
2022-09-15T08:26:13.579Z,100387.84
2022-09-15T08:28:40.743Z,100385.84
2022-09-15T08:31:09.239Z,100396.78
2022-09-15T08:33:35.982Z,100399.94
2022-09-15T08:36:07.504Z,100395.66
2022-09-15T08:38:34.173Z,100391.97
2022-09-15T08:41:06.321Z,100391.22
2022-09-15T08:44:00.327Z,100392.16
2022-09-15T08:46:37.196Z,100397.72
2022-09-15T08:49:10.509Z,100404.75
2022-09-15T08:51:46.112Z,100370.00
2022-09-15T08:54:22.658Z,100408.19
2022-09-15T08:56:49.939Z,100363.75
2022-09-15T08:59:18.257Z,100407.22
2022-09-15T09:02:23.398Z,100415.81
2022-09-15T09:04:52.800Z,100416.91
2022-09-15T09:07:30.937Z,100416.41
2022-09-15T09:10:46.218Z,100412.97
2022-09-15T09:14:05.739Z,100420.50
2022-09-15T09:17:00.070Z,100416.66
2022-09-15T09:20:01.889Z,100424.78
2022-09-15T09:22:34.681Z,100406.34
2022-09-15T09:25:21.278Z,100433.72
2022-09-15T09:27:50.436Z,100419.38
2022-09-15T09:30:19.948Z,100429.91
2022-09-15T09:33:08.557Z,100437.56
2022-09-15T09:35:44.620Z,100401.59
2022-09-15T09:38:31.716Z,100427.63
2022-09-15T09:41:02.119Z,100427.19
2022-09-15T09:43:30.426Z,100430.13
2022-09-15T09:45:57.093Z,100427.00
2022-09-15T09:48:27.640Z,100431.50
2022-09-15T09:50:55.154Z,100411.75
2022-09-15T09:53:34.248Z,100411.44
2022-09-15T09:56:23.292Z,100423.09
2022-09-15T09:58:50.223Z,100419.84
2022-09-15T10:01:19.949Z,100417.81
2022-09-15T10:03:46.892Z,100420.59
2022-09-15T10:06:16.295Z,100426.22
2022-09-15T10:08:58.729Z,100423.91
2022-09-15T10:11:49.797Z,100418.59
2022-09-15T10:14:22.492Z,100402.56
2022-09-15T10:17:00.538Z,100414.72
2022-09-15T10:19:44.780Z,100427.94
2022-09-15T10:22:31.347Z,100429.75
2022-09-15T10:25:00.423Z,100431.22
2022-09-15T10:27:34.062Z,100416.53
2022-09-15T10:30:12.853Z,100421.44
2022-09-15T10:32:39.853Z,100425.84
2022-09-15T10:35:21.118Z,100427.00
2022-09-15T10:37:56.541Z,100420.56
2022-09-15T10:40:33.568Z,100423.44
2022-09-15T10:43:23.148Z,100427.81
2022-09-15T10:45:59.984Z,100417.50
2022-09-15T10:48:41.294Z,100424.94
2022-09-15T10:51:10.482Z,100418.03
2022-09-15T10:54:25.082Z,100423.38
2022-09-15T10:56:57.290Z,100411.81
2022-09-15T10:59:32.108Z,100421.53
2022-09-15T11:02:20.206Z,100419.03
2022-09-15T11:04:56.235Z,100427.41
2022-09-15T11:07:44.769Z,100418.88
2022-09-15T11:10:20.141Z,100431.66
2022-09-15T11:13:00.167Z,100418.94
2022-09-15T11:15:33.239Z,100426.59
2022-09-15T11:18:24.169Z,100425.38
2022-09-15T11:21:06.435Z,100424.38
2022-09-15T11:24:11.958Z,100424.31
2022-09-15T11:26:43.883Z,100420.97
2022-09-15T11:29:18.010Z,100428.00
2022-09-15T11:31:49.209Z,100431.97
2022-09-15T11:34:22.991Z,100420.94
2022-09-15T11:36:55.000Z,100421.03
2022-09-15T11:39:30.446Z,100429.72
2022-09-15T11:42:13.004Z,100425.03
2022-09-15T11:44:41.412Z,100423.38
2022-09-15T11:47:19.952Z,100427.91
2022-09-15T11:50:03.618Z,100418.97
2022-09-15T11:52:56.484Z,100422.22
2022-09-15T11:55:30.388Z,100424.53
2022-09-15T11:58:16.334Z,100416.13
2022-09-15T12:00:54.435Z,100422.00
2022-09-15T12:03:50.547Z,100432.72
2022-09-15T12:06:35.090Z,100435.66
2022-09-15T12:09:04.020Z,100438.97
2022-09-15T12:11:34.565Z,100431.34
2022-09-15T12:14:04.034Z,100431.16
2022-09-15T12:16:33.167Z,100433.34
2022-09-15T12:19:21.511Z,100437.00
2022-09-15T12:21:51.155Z,100442.59
2022-09-15T12:24:41.335Z,100434.66
2022-09-15T12:27:16.382Z,100430.44
2022-09-15T12:29:51.307Z,100432.44
2022-09-15T12:32:21.323Z,100438.91
2022-09-15T12:35:24.933Z,100437.88
2022-09-15T12:37:59.050Z,100440.88
2022-09-15T12:40:27.742Z,100443.69
2022-09-15T12:42:54.522Z,100450.91
2022-09-15T12:45:24.739Z,100427.22
2022-09-15T12:48:11.947Z,100452.13
2022-09-15T12:50:42.381Z,100461.88
2022-09-15T12:53:21.949Z,100451.84
2022-09-15T12:56:11.558Z,100429.13
2022-09-15T12:58:40.767Z,100461.59
2022-09-15T13:01:32.321Z,100465.25
2022-09-15T13:03:58.928Z,100466.75
2022-09-15T13:06:26.614Z,100458.75
2022-09-15T13:08:53.057Z,100459.94
2022-09-15T13:11:25.462Z,100465.38
2022-09-15T13:14:11.161Z,100459.19
2022-09-15T13:16:40.568Z,100459.25
2022-09-15T13:19:41.369Z,100469.34
2022-09-15T13:22:10.865Z,100466.88
2022-09-15T13:24:46.100Z,100466.78
2022-09-15T13:27:14.836Z,100467.78
2022-09-15T13:30:11.317Z,100478.34
2022-09-15T13:32:52.277Z,100472.25
2022-09-15T13:35:40.358Z,100475.28
2022-09-15T13:38:21.758Z,100473.16
2022-09-15T13:41:10.508Z,100475.16
2022-09-15T13:43:49.695Z,100472.84
2022-09-15T13:46:28.858Z,100475.84
2022-09-15T13:49:35.650Z,100473.53
2022-09-15T13:52:23.316Z,100470.25
2022-09-15T13:55:11.838Z,100469.59
2022-09-15T14:00:43.333Z,100469.13
2022-09-15T14:03:13.773Z,100449.66
2022-09-15T14:05:40.553Z,100454.63
2022-09-15T14:08:15.663Z,100448.53
2022-09-15T14:10:48.326Z,100449.22
2022-09-15T14:13:17.660Z,100444.25
2022-09-15T14:16:10.411Z,100448.03
2022-09-15T14:18:44.209Z,100442.28
2022-09-15T14:21:16.848Z,100451.28
2022-09-15T14:24:17.433Z,100444.50
2022-09-15T14:26:43.868Z,100446.34
2022-09-15T14:29:18.944Z,100441.56
2022-09-15T14:31:45.720Z,100439.09
2022-09-15T14:34:21.555Z,100422.44
2022-09-15T14:37:04.218Z,100448.19
2022-09-15T14:39:31.153Z,100446.72
2022-09-15T14:47:28.327Z,100454.13
2022-09-15T14:50:19.837Z,100449.84
2022-09-15T14:53:02.926Z,100451.34
2022-09-15T14:55:37.801Z,100462.53
2022-09-15T14:58:45.524Z,100449.53
2022-09-15T15:01:30.328Z,100449.53
2022-09-15T15:04:20.122Z,100446.22
2022-09-15T15:07:10.504Z,100453.81
2022-09-15T15:09:50.383Z,100446.09
2022-09-15T15:12:33.127Z,100449.38
2022-09-15T15:15:00.325Z,100450.19
2022-09-15T15:17:45.293Z,100448.22
2022-09-15T15:20:14.043Z,100459.25
2022-09-15T15:22:42.441Z,100447.53
2022-09-15T15:25:29.337Z,100452.16
2022-09-15T15:28:00.374Z,100454.44
2022-09-15T15:30:30.463Z,100454.44
2022-09-15T15:32:58.248Z,100456.41
2022-09-15T15:35:25.237Z,100446.19
2022-09-15T15:38:03.551Z,100445.53
2022-09-15T15:40:30.562Z,100454.28
2022-09-15T15:43:03.110Z,100453.63
2022-09-15T15:45:31.702Z,100460.06
2022-09-15T15:47:58.442Z,100453.28
2022-09-15T15:50:28.236Z,100411.47
2022-09-15T15:52:54.804Z,100458.22
2022-09-15T15:55:28.358Z,100454.28
2022-09-15T15:57:55.935Z,100460.69
2022-09-15T16:00:29.607Z,100462.97
2022-09-15T16:02:56.311Z,100453.09
2022-09-15T16:05:26.904Z,100460.84
2022-09-15T16:07:56.072Z,100456.75
2022-09-15T16:10:25.691Z,100452.78
2022-09-15T16:12:52.214Z,100449.66
2022-09-15T16:15:21.352Z,100458.72
2022-09-15T16:17:48.920Z,100459.91
2022-09-15T16:20:16.363Z,100455.91
2022-09-15T16:22:43.480Z,100455.06
2022-09-15T16:25:23.210Z,100446.84
2022-09-15T16:27:49.722Z,100455.91
2022-09-15T16:30:16.155Z,100452.78
2022-09-15T16:32:42.726Z,100448.00
2022-09-15T16:35:35.062Z,100458.06
2022-09-15T16:38:01.580Z,100457.72
2022-09-15T16:40:28.225Z,100443.22
2022-09-15T16:42:54.805Z,100467.31
2022-09-15T16:45:38.069Z,100461.19
2022-09-15T16:48:07.205Z,100448.88
2022-09-15T16:50:33.839Z,100457.56
2022-09-15T16:53:00.316Z,100466.97
2022-09-15T16:55:46.068Z,100466.97
2022-09-15T16:58:14.053Z,100466.50
2022-09-15T17:00:42.074Z,100472.09
2022-09-15T17:03:09.037Z,100463.06
2022-09-15T17:05:43.050Z,100470.97
2022-09-15T17:08:12.945Z,100446.72
2022-09-15T17:10:40.371Z,100472.59
2022-09-15T17:13:07.993Z,100486.78
2022-09-15T17:15:37.791Z,100479.38
2022-09-15T17:18:05.629Z,100484.78
2022-09-15T17:20:38.537Z,100489.41
2022-09-15T17:23:31.055Z,100485.63
2022-09-15T17:26:00.018Z,100484.13
2022-09-15T17:28:29.249Z,100492.19
2022-09-15T17:30:58.268Z,100479.19
2022-09-15T17:33:25.295Z,100493.53
2022-09-15T17:35:52.248Z,100498.78
2022-09-15T17:38:20.406Z,100496.31
2022-09-15T17:40:48.184Z,100495.31
2022-09-15T17:43:17.704Z,100490.53
2022-09-15T17:45:44.547Z,100495.97
2022-09-15T17:48:11.796Z,100489.22
2022-09-15T17:50:39.129Z,100465.59
2022-09-15T17:53:13.766Z,100495.09
2022-09-15T17:55:40.642Z,100488.19
2022-09-15T17:58:07.462Z,100484.69
2022-09-15T18:00:39.669Z,100471.50
2022-09-15T18:03:23.601Z,100492.91
2022-09-15T18:05:51.021Z,100491.09
2022-09-15T18:08:18.517Z,100497.50
2022-09-15T18:10:45.453Z,100497.34
2022-09-15T18:13:20.903Z,100500.25
2022-09-15T18:15:48.983Z,100468.41
2022-09-15T18:18:18.801Z,100507.84
2022-09-15T18:20:45.737Z,100511.94
2022-09-15T18:23:14.740Z,100506.66
2022-09-15T18:25:42.318Z,100509.44
2022-09-15T18:28:09.285Z,100467.53
2022-09-15T18:30:40.646Z,100508.41
2022-09-15T18:33:22.163Z,100508.75
2022-09-15T18:35:50.413Z,100510.53
2022-09-15T18:38:17.929Z,100505.59
2022-09-15T18:40:47.547Z,100514.16
2022-09-15T18:43:14.061Z,100514.94
2022-09-15T18:45:42.664Z,100521.03
2022-09-15T18:48:12.627Z,100520.22
2022-09-15T18:50:40.474Z,100515.56
2022-09-15T18:53:06.916Z,100528.59
2022-09-15T18:55:33.412Z,100533.34
2022-09-15T18:58:01.189Z,100533.47
2022-09-15T19:00:28.842Z,100533.78
2022-09-15T19:02:59.630Z,100537.41
2022-09-15T19:05:28.133Z,100541.00
2022-09-15T19:07:55.376Z,100537.69
2022-09-15T19:10:22.302Z,100534.25
2022-09-15T19:12:48.751Z,100546.06
2022-09-15T19:15:15.682Z,100547.19
2022-09-15T19:17:43.298Z,100530.34
2022-09-15T19:20:12.587Z,100547.81
2022-09-15T19:22:39.645Z,100549.75
2022-09-15T19:25:07.751Z,100554.22
2022-09-15T19:27:34.727Z,100559.47
2022-09-15T19:30:01.708Z,100552.03
2022-09-15T19:32:28.182Z,100554.69
2022-09-15T19:34:54.623Z,100561.72
2022-09-15T19:37:22.296Z,100561.91
2022-09-15T19:39:50.086Z,100549.03
2022-09-15T19:42:16.639Z,100552.66
2022-09-15T19:44:43.156Z,100551.66
2022-09-15T19:47:10.524Z,100553.78
2022-09-15T19:49:37.258Z,100555.19
2022-09-15T19:52:06.221Z,100554.63
2022-09-15T19:54:34.429Z,100557.56
2022-09-15T19:57:01.191Z,100562.97
2022-09-15T19:59:31.225Z,100572.50
2022-09-15T20:01:59.215Z,100562.25
2022-09-15T20:04:25.866Z,100571.72
2022-09-15T20:06:52.316Z,100578.66
2022-09-15T20:09:18.791Z,100583.38
2022-09-15T20:11:45.350Z,100582.72
2022-09-15T20:14:11.996Z,100553.25
2022-09-15T20:16:38.471Z,100580.53
2022-09-15T20:19:05.086Z,100580.13
2022-09-15T20:21:52.045Z,100574.34
2022-09-15T20:24:19.783Z,100575.50
2022-09-15T20:26:46.388Z,100585.50
2022-09-15T20:29:13.817Z,100561.66
2022-09-15T20:31:40.662Z,100582.25
2022-09-15T20:34:07.379Z,100592.91
2022-09-15T20:36:36.835Z,100590.41
2022-09-15T20:39:06.072Z,100579.31
2022-09-15T20:41:32.666Z,100597.38
2022-09-15T20:44:00.150Z,100596.31
2022-09-15T20:46:28.798Z,100609.91
2022-09-15T20:48:55.294Z,100608.38
2022-09-15T20:51:24.392Z,100611.19
2022-09-15T20:53:53.335Z,100613.94
2022-09-15T20:56:24.741Z,100608.81
2022-09-15T20:59:01.484Z,100606.50
2022-09-15T21:01:36.714Z,100612.06
2022-09-15T21:04:04.374Z,100610.53
2022-09-15T21:06:31.574Z,100605.41
2022-09-15T21:08:58.568Z,100614.13
2022-09-15T21:11:26.668Z,100612.50
2022-09-15T21:13:53.848Z,100604.75
2022-09-15T21:16:23.393Z,100600.47
2022-09-15T21:18:51.331Z,100578.56
2022-09-15T21:21:19.410Z,100600.47
2022-09-15T21:23:48.210Z,100604.22
2022-09-15T21:26:18.059Z,100608.78
2022-09-15T21:28:45.349Z,100576.38
2022-09-15T21:31:16.956Z,100606.59
2022-09-15T21:33:44.518Z,100608.81
2022-09-15T21:36:18.592Z,100613.94
2022-09-15T21:38:45.298Z,100610.88
2022-09-15T21:41:14.934Z,100613.81
2022-09-15T21:43:44.525Z,100611.19
2022-09-15T21:46:13.564Z,100621.81
2022-09-15T21:48:40.687Z,100624.19
2022-09-15T21:51:08.186Z,100622.38
2022-09-15T21:53:34.998Z,100607.09
2022-09-15T21:56:03.471Z,100633.31
2022-09-15T21:58:39.070Z,100624.75
2022-09-15T22:01:14.109Z,100629.22
2022-09-15T22:03:42.568Z,100630.16
2022-09-15T22:06:13.058Z,100630.28
2022-09-15T22:08:40.104Z,100642.00
2022-09-15T22:11:08.014Z,100635.41
2022-09-15T22:13:36.971Z,100625.03
2022-09-15T22:16:06.395Z,100634.44
2022-09-15T22:18:36.755Z,100638.44
2022-09-15T22:21:15.900Z,100649.09
2022-09-15T22:23:43.736Z,100649.94
2022-09-15T22:26:13.149Z,100642.06
2022-09-15T22:28:39.909Z,100644.81
2022-09-15T22:31:08.287Z,100647.31
2022-09-15T22:33:35.070Z,100644.50
2022-09-15T22:36:01.620Z,100643.56
2022-09-15T22:38:29.978Z,100638.31
2022-09-15T22:41:03.756Z,100642.72
2022-09-15T22:43:30.219Z,100634.84
2022-09-15T22:45:56.697Z,100643.56
2022-09-15T22:48:23.634Z,100639.44
2022-09-15T22:50:50.075Z,100634.31
2022-09-15T22:53:16.517Z,100630.03
2022-09-15T22:55:43.041Z,100633.50
2022-09-15T22:58:09.554Z,100639.84
2022-09-15T23:00:39.220Z,100623.25
2022-09-15T23:03:06.571Z,100630.16
2022-09-15T23:05:34.117Z,100626.19
2022-09-15T23:08:00.675Z,100630.59
2022-09-15T23:10:27.274Z,100628.94
2022-09-15T23:12:54.221Z,100631.84
2022-09-15T23:15:20.732Z,100630.31
2022-09-15T23:17:47.437Z,100623.84
2022-09-15T23:20:13.919Z,100629.91
2022-09-15T23:22:40.377Z,100625.78
2022-09-15T23:25:07.109Z,100626.88
2022-09-15T23:27:33.611Z,100629.94
2022-09-15T23:30:00.052Z,100630.06
2022-09-15T23:32:26.490Z,100625.91
2022-09-15T23:34:53.406Z,100615.69
2022-09-15T23:37:19.822Z,100626.63
2022-09-15T23:39:46.597Z,100614.59
2022-09-15T23:42:18.077Z,100614.59
2022-09-15T23:44:45.314Z,100616.25
2022-09-15T23:47:11.710Z,100621.50
2022-09-15T23:49:38.138Z,100621.91
2022-09-15T23:52:04.585Z,100622.47
2022-09-15T23:54:31.033Z,100613.78
2022-09-15T23:56:57.541Z,100617.78
2022-09-15T23:59:24.059Z,100612.25
